sensor_id;sensor_type;location;lat;lon;timestamp;pressure;altitude;pressure_sealevel;temperature;humidity
71666;BME280;59503;53.486;10.196;2023-05-03T00:02:04;102849.69;;;1.08;100.00
71666;BME280;59503;53.486;10.196;2023-05-03T00:04:30;102856.09;;;1.07;100.00
71666;BME280;59503;53.486;10.196;2023-05-03T00:06:58;102848.78;;;1.03;100.00
71666;BME280;59503;53.486;10.196;2023-05-03T00:09:24;102851.47;;;1.03;100.00
71666;BME280;59503;53.486;10.196;2023-05-03T00:11:49;102855.47;;;1.00;100.00
71666;BME280;59503;53.486;10.196;2023-05-03T00:14:14;102845.72;;;0.94;100.00
71666;BME280;59503;53.486;10.196;2023-05-03T00:16:40;102841.38;;;0.88;100.00
71666;BME280;59503;53.486;10.196;2023-05-03T00:19:05;102850.94;;;0.84;100.00
71666;BME280;59503;53.486;10.196;2023-05-03T00:21:31;102854.09;;;0.81;100.00
71666;BME280;59503;53.486;10.196;2023-05-03T00:23:56;102850.78;;;0.74;100.00
71666;BME280;59503;53.486;10.196;2023-05-03T00:26:22;102850.78;;;0.74;100.00
71666;BME280;59503;53.486;10.196;2023-05-03T00:28:47;102844.84;;;0.72;100.00
71666;BME280;59503;53.486;10.196;2023-05-03T00:31:13;102846.16;;;0.70;100.00
71666;BME280;59503;53.486;10.196;2023-05-03T00:33:38;102844.22;;;0.65;100.00
71666;BME280;59503;53.486;10.196;2023-05-03T00:36:11;102843.16;;;0.66;100.00
71666;BME280;59503;53.486;10.196;2023-05-03T00:38:37;102841.56;;;0.65;100.00
71666;BME280;59503;53.486;10.196;2023-05-03T00:41:03;102850.69;;;0.69;100.00
71666;BME280;59503;53.486;10.196;2023-05-03T00:43:30;102852.34;;;0.70;100.00
71666;BME280;59503;53.486;10.196;2023-05-03T00:45:57;102849.84;;;0.64;100.00
71666;BME280;59503;53.486;10.196;2023-05-03T00:48:23;102860.03;;;0.67;100.00
71666;BME280;59503;53.486;10.196;2023-05-03T00:50:49;102859.97;;;0.62;100.00
71666;BME280;59503;53.486;10.196;2023-05-03T00:53:15;102856.47;;;0.61;100.00
71666;BME280;59503;53.486;10.196;2023-05-03T00:55:41;102854.22;;;0.53;100.00
71666;BME280;59503;53.486;10.196;2023-05-03T00:58:07;102856.06;;;0.53;100.00
71666;BME280;59503;53.486;10.196;2023-05-03T01:00:32;102850.13;;;0.51;100.00
71666;BME280;59503;53.486;10.196;2023-05-03T01:02:58;102849.69;;;0.54;100.00
71666;BME280;59503;53.486;10.196;2023-05-03T01:05:24;102854.22;;;0.53;100.00
71666;BME280;59503;53.486;10.196;2023-05-03T01:08:10;102849.34;;;0.50;100.00
71666;BME280;59503;53.486;10.196;2023-05-03T01:13:41;102851.38;;;0.43;100.00
71666;BME280;59503;53.486;10.196;2023-05-03T01:16:20;102860.22;;;0.44;100.00
71666;BME280;59503;53.486;10.196;2023-05-03T01:18:47;102858.31;;;0.44;100.00
71666;BME280;59503;53.486;10.196;2023-05-03T01:21:18;102841.94;;;0.41;100.00
71666;BME280;59503;53.486;10.196;2023-05-03T01:23:56;102861.56;;;0.46;100.00
71666;BME280;59503;53.486;10.196;2023-05-03T01:26:24;102861.56;;;0.46;100.00
71666;BME280;59503;53.486;10.196;2023-05-03T01:28:50;102865.06;;;0.47;100.00
71666;BME280;59503;53.486;10.196;2023-05-03T01:37:03;102874.28;;;0.39;100.00
71666;BME280;59503;53.486;10.196;2023-05-03T01:42:21;102870.72;;;0.34;100.00
71666;BME280;59503;53.486;10.196;2023-05-03T01:44:48;102877.38;;;0.31;100.00
71666;BME280;59503;53.486;10.196;2023-05-03T01:47:14;102877.13;;;0.33;100.00
71666;BME280;59503;53.486;10.196;2023-05-03T01:49:39;102881.66;;;0.32;100.00
71666;BME280;59503;53.486;10.196;2023-05-03T01:52:05;102880.63;;;0.33;100.00
71666;BME280;59503;53.486;10.196;2023-05-03T01:54:30;102885.38;;;0.31;100.00
71666;BME280;59503;53.486;10.196;2023-05-03T01:56:56;102873.00;;;0.25;100.00
71666;BME280;59503;53.486;10.196;2023-05-03T01:59:21;102883.88;;;0.35;100.00
71666;BME280;59503;53.486;10.196;2023-05-03T02:01:46;102884.66;;;0.36;100.00
71666;BME280;59503;53.486;10.196;2023-05-03T02:04:12;102888.97;;;0.37;100.00
71666;BME280;59503;53.486;10.196;2023-05-03T02:06:37;102885.47;;;0.36;100.00
71666;BME280;59503;53.486;10.196;2023-05-03T02:09:02;102882.72;;;0.31;100.00
71666;BME280;59503;53.486;10.196;2023-05-03T02:11:28;102881.41;;;0.34;100.00
71666;BME280;59503;53.486;10.196;2023-05-03T02:13:53;102883.03;;;0.35;100.00
71666;BME280;59503;53.486;10.196;2023-05-03T02:16:18;102886.38;;;0.42;100.00
71666;BME280;59503;53.486;10.196;2023-05-03T02:18:44;102891.56;;;0.48;100.00
71666;BME280;59503;53.486;10.196;2023-05-03T02:21:09;102886.41;;;0.58;100.00
71666;BME280;59503;53.486;10.196;2023-05-03T02:23:35;102894.09;;;0.71;100.00
71666;BME280;59503;53.486;10.196;2023-05-03T02:26:01;102888.00;;;0.76;100.00
71666;BME280;59503;53.486;10.196;2023-05-03T02:28:26;102891.91;;;0.85;100.00
71666;BME280;59503;53.486;10.196;2023-05-03T02:30:51;102894.41;;;0.91;100.00
71666;BME280;59503;53.486;10.196;2023-05-03T02:33:17;102894.25;;;0.98;100.00
71666;BME280;59503;53.486;10.196;2023-05-03T02:35:42;102900.16;;;1.00;100.00
71666;BME280;59503;53.486;10.196;2023-05-03T02:38:07;102904.38;;;0.96;100.00
71666;BME280;59503;53.486;10.196;2023-05-03T02:40:32;102901.88;;;0.89;100.00
71666;BME280;59503;53.486;10.196;2023-05-03T02:42:59;102905.53;;;0.83;100.00
71666;BME280;59503;53.486;10.196;2023-05-03T02:45:24;102910.81;;;0.78;100.00
71666;BME280;59503;53.486;10.196;2023-05-03T02:47:50;102903.03;;;0.77;100.00
71666;BME280;59503;53.486;10.196;2023-05-03T02:50:15;102911.94;;;0.82;100.00
71666;BME280;59503;53.486;10.196;2023-05-03T02:52:40;102904.31;;;0.91;100.00
71666;BME280;59503;53.486;10.196;2023-05-03T02:55:06;102901.38;;;1.09;100.00
71666;BME280;59503;53.486;10.196;2023-05-03T02:57:31;102905.63;;;1.26;100.00
71666;BME280;59503;53.486;10.196;2023-05-03T02:59:57;102906.66;;;1.42;100.00
71666;BME280;59503;53.486;10.196;2023-05-03T03:02:22;102902.81;;;1.55;100.00
71666;BME280;59503;53.486;10.196;2023-05-03T03:04:48;102919.06;;;1.70;100.00
71666;BME280;59503;53.486;10.196;2023-05-03T03:07:13;102889.06;;;1.68;100.00
71666;BME280;59503;53.486;10.196;2023-05-03T03:09:38;102908.63;;;1.90;100.00
71666;BME280;59503;53.486;10.196;2023-05-03T03:12:04;102911.16;;;2.01;100.00
71666;BME280;59503;53.486;10.196;2023-05-03T03:14:29;102905.84;;;2.06;100.00
71666;BME280;59503;53.486;10.196;2023-05-03T03:16:54;102912.69;;;2.19;100.00
71666;BME280;59503;53.486;10.196;2023-05-03T03:19:20;102908.44;;;2.23;100.00
71666;BME280;59503;53.486;10.196;2023-05-03T03:21:45;102910.09;;;2.29;100.00
71666;BME280;59503;53.486;10.196;2023-05-03T03:24:10;102911.28;;;2.38;100.00
71666;BME280;59503;53.486;10.196;2023-05-03T03:26:36;102917.75;;;2.42;100.00
71666;BME280;59503;53.486;10.196;2023-05-03T03:29:01;102907.31;;;2.45;100.00
71666;BME280;59503;53.486;10.196;2023-05-03T03:31:26;102917.84;;;2.52;100.00
71666;BME280;59503;53.486;10.196;2023-05-03T03:33:52;102911.97;;;2.55;100.00
71666;BME280;59503;53.486;10.196;2023-05-03T03:36:17;102914.16;;;2.58;100.00
71666;BME280;59503;53.486;10.196;2023-05-03T03:38:42;102919.00;;;2.61;100.00
71666;BME280;59503;53.486;10.196;2023-05-03T03:41:08;102910.94;;;2.61;100.00
71666;BME280;59503;53.486;10.196;2023-05-03T03:43:33;102916.34;;;2.66;100.00
71666;BME280;59503;53.486;10.196;2023-05-03T03:45:59;102915.59;;;2.71;100.00
71666;BME280;59503;53.486;10.196;2023-05-03T03:48:24;102914.28;;;2.73;100.00
71666;BME280;59503;53.486;10.196;2023-05-03T03:50:49;102908.66;;;2.75;100.00
71666;BME280;59503;53.486;10.196;2023-05-03T03:53:15;102912.16;;;2.75;100.00
71666;BME280;59503;53.486;10.196;2023-05-03T03:55:40;102912.44;;;2.79;100.00
71666;BME280;59503;53.486;10.196;2023-05-03T03:58:06;102908.44;;;2.81;100.00
71666;BME280;59503;53.486;10.196;2023-05-03T04:00:32;102906.84;;;2.85;100.00
71666;BME280;59503;53.486;10.196;2023-05-03T04:02:58;102916.03;;;2.94;100.00
71666;BME280;59503;53.486;10.196;2023-05-03T04:05:23;102915.03;;;3.00;100.00
71666;BME280;59503;53.486;10.196;2023-05-03T04:07:48;102901.06;;;3.03;100.00
71666;BME280;59503;53.486;10.196;2023-05-03T04:10:14;102911.34;;;3.11;100.00
71666;BME280;59503;53.486;10.196;2023-05-03T04:12:39;102909.50;;;3.17;100.00
71666;BME280;59503;53.486;10.196;2023-05-03T04:15:05;102913.03;;;3.22;100.00
71666;BME280;59503;53.486;10.196;2023-05-03T04:17:30;102900.66;;;3.21;100.00
71666;BME280;59503;53.486;10.196;2023-05-03T04:19:57;102906.88;;;3.27;100.00
71666;BME280;59503;53.486;10.196;2023-05-03T04:22:22;102912.56;;;3.35;100.00
71666;BME280;59503;53.486;10.196;2023-05-03T04:24:47;102907.78;;;3.42;100.00
71666;BME280;59503;53.486;10.196;2023-05-03T04:27:13;102909.66;;;3.47;100.00
71666;BME280;59503;53.486;10.196;2023-05-03T04:29:38;102908.41;;;3.59;100.00
71666;BME280;59503;53.486;10.196;2023-05-03T04:32:04;102910.28;;;3.64;100.00
71666;BME280;59503;53.486;10.196;2023-05-03T04:34:30;102912.75;;;3.70;100.00
71666;BME280;59503;53.486;10.196;2023-05-03T04:36:56;102917.34;;;3.80;100.00
71666;BME280;59503;53.486;10.196;2023-05-03T04:39:22;102910.91;;;3.81;100.00
71666;BME280;59503;53.486;10.196;2023-05-03T04:41:48;102922.50;;;3.92;100.00
71666;BME280;59503;53.486;10.196;2023-05-03T04:44:13;102920.09;;;4.00;100.00
71666;BME280;59503;53.486;10.196;2023-05-03T04:46:38;102926.88;;;4.08;100.00
71666;BME280;59503;53.486;10.196;2023-05-03T04:49:04;102918.53;;;4.09;100.00
71666;BME280;59503;53.486;10.196;2023-05-03T04:51:29;102937.13;;;4.21;100.00
71666;BME280;59503;53.486;10.196;2023-05-03T04:53:57;102943.91;;;4.33;100.00
71666;BME280;59503;53.486;10.196;2023-05-03T04:56:22;102945.25;;;4.36;100.00
71666;BME280;59503;53.486;10.196;2023-05-03T04:58:53;102948.78;;;4.46;100.00
71666;BME280;59503;53.486;10.196;2023-05-03T05:01:18;102961.69;;;4.54;100.00
71666;BME280;59503;53.486;10.196;2023-05-03T05:03:44;102949.84;;;4.60;100.00
71666;BME280;59503;53.486;10.196;2023-05-03T05:06:09;102952.56;;;4.70;100.00
71666;BME280;59503;53.486;10.196;2023-05-03T05:08:36;102952.31;;;4.77;100.00
71666;BME280;59503;53.486;10.196;2023-05-03T05:11:02;102952.31;;;4.87;100.00
71666;BME280;59503;53.486;10.196;2023-05-03T05:13:30;102959.31;;;4.98;100.00
71666;BME280;59503;53.486;10.196;2023-05-03T05:15:55;102955.53;;;5.04;100.00
71666;BME280;59503;53.486;10.196;2023-05-03T05:18:21;102959.56;;;5.12;100.00
71666;BME280;59503;53.486;10.196;2023-05-03T05:20:46;102951.47;;;5.22;100.00
71666;BME280;59503;53.486;10.196;2023-05-03T05:23:11;102966.31;;;5.29;100.00
71666;BME280;59503;53.486;10.196;2023-05-03T05:25:37;102965.22;;;5.35;100.00
71666;BME280;59503;53.486;10.196;2023-05-03T05:28:02;102955.75;;;5.43;100.00
71666;BME280;59503;53.486;10.196;2023-05-03T05:30:27;102961.38;;;5.51;100.00
71666;BME280;59503;53.486;10.196;2023-05-03T05:32:53;102965.72;;;5.57;100.00
71666;BME280;59503;53.486;10.196;2023-05-03T05:35:18;102971.59;;;5.74;100.00
71666;BME280;59503;53.486;10.196;2023-05-03T05:37:43;102971.59;;;5.79;100.00
71666;BME280;59503;53.486;10.196;2023-05-03T05:40:09;102969.97;;;5.83;100.00
71666;BME280;59503;53.486;10.196;2023-05-03T05:42:35;102985.06;;;5.94;100.00
71666;BME280;59503;53.486;10.196;2023-05-03T05:45:00;102976.41;;;5.97;100.00
71666;BME280;59503;53.486;10.196;2023-05-03T05:47:26;102985.28;;;6.08;100.00
71666;BME280;59503;53.486;10.196;2023-05-03T05:49:51;102986.28;;;6.22;100.00
71666;BME280;59503;53.486;10.196;2023-05-03T05:52:16;102987.88;;;6.28;100.00
71666;BME280;59503;53.486;10.196;2023-05-03T05:54:41;102988.63;;;6.33;100.00
71666;BME280;59503;53.486;10.196;2023-05-03T05:57:07;102995.06;;;6.48;100.00
71666;BME280;59503;53.486;10.196;2023-05-03T05:59:32;102983.38;;;6.57;100.00
71666;BME280;59503;53.486;10.196;2023-05-03T06:01:58;102981.94;;;6.70;100.00
71666;BME280;59503;53.486;10.196;2023-05-03T06:04:24;102988.63;;;6.77;100.00
71666;BME280;59503;53.486;10.196;2023-05-03T06:06:50;102988.53;;;6.92;100.00
71666;BME280;59503;53.486;10.196;2023-05-03T06:09:15;102997.56;;;7.11;100.00
71666;BME280;59503;53.486;10.196;2023-05-03T06:11:41;102993.91;;;7.26;100.00
71666;BME280;59503;53.486;10.196;2023-05-03T06:14:07;102992.13;;;7.45;100.00
71666;BME280;59503;53.486;10.196;2023-05-03T06:16:35;102978.16;;;7.62;100.00
71666;BME280;59503;53.486;10.196;2023-05-03T06:19:00;102988.81;;;7.77;100.00
71666;BME280;59503;53.486;10.196;2023-05-03T06:21:26;103007.19;;;8.03;100.00
71666;BME280;59503;53.486;10.196;2023-05-03T06:23:51;102994.25;;;8.19;100.00
71666;BME280;59503;53.486;10.196;2023-05-03T06:26:16;102989.56;;;8.66;100.00
71666;BME280;59503;53.486;10.196;2023-05-03T06:28:42;102987.81;;;9.08;97.93
71666;BME280;59503;53.486;10.196;2023-05-03T06:31:07;102990.09;;;9.33;95.30
71666;BME280;59503;53.486;10.196;2023-05-03T06:33:32;102997.50;;;9.73;91.04
71666;BME280;59503;53.486;10.196;2023-05-03T06:35:57;103005.97;;;9.85;90.67
71666;BME280;59503;53.486;10.196;2023-05-03T06:38:23;103006.78;;;9.99;90.31
71666;BME280;59503;53.486;10.196;2023-05-03T06:40:48;102997.03;;;10.12;87.57
71666;BME280;59503;53.486;10.196;2023-05-03T06:43:15;102997.41;;;9.91;82.38
71666;BME280;59503;53.486;10.196;2023-05-03T06:45:41;103001.53;;;9.89;77.92
71666;BME280;59503;53.486;10.196;2023-05-03T06:48:07;103009.91;;;9.79;78.63
71666;BME280;59503;53.486;10.196;2023-05-03T06:50:32;103010.41;;;9.81;73.58
71666;BME280;59503;53.486;10.196;2023-05-03T06:52:58;103013.22;;;10.17;73.85
71666;BME280;59503;53.486;10.196;2023-05-03T06:55:23;103003.59;;;10.60;73.64
71666;BME280;59503;53.486;10.196;2023-05-03T06:57:48;102996.50;;;11.16;67.74
71666;BME280;59503;53.486;10.196;2023-05-03T07:00:14;103002.13;;;11.73;67.27
71666;BME280;59503;53.486;10.196;2023-05-03T07:02:40;103002.97;;;11.29;65.67
71666;BME280;59503;53.486;10.196;2023-05-03T07:05:05;103001.91;;;11.61;66.29
71666;BME280;59503;53.486;10.196;2023-05-03T07:07:31;102993.13;;;11.64;65.57
71666;BME280;59503;53.486;10.196;2023-05-03T07:09:57;102998.81;;;11.84;61.85
71666;BME280;59503;53.486;10.196;2023-05-03T07:12:22;103001.78;;;11.66;62.32
71666;BME280;59503;53.486;10.196;2023-05-03T07:14:52;102994.59;;;11.17;62.47
71666;BME280;59503;53.486;10.196;2023-05-03T07:17:17;103003.13;;;10.80;60.50
71666;BME280;59503;53.486;10.196;2023-05-03T07:19:42;103001.81;;;10.77;58.66
71666;BME280;59503;53.486;10.196;2023-05-03T07:22:08;102996.75;;;10.84;58.29
71666;BME280;59503;53.486;10.196;2023-05-03T07:24:33;102996.38;;;10.77;58.57
71666;BME280;59503;53.486;10.196;2023-05-03T07:26:58;103002.31;;;10.79;58.88
71666;BME280;59503;53.486;10.196;2023-05-03T07:29:23;102998.94;;;10.25;59.68
71666;BME280;59503;53.486;10.196;2023-05-03T07:31:50;102986.59;;;10.54;59.44
71666;BME280;59503;53.486;10.196;2023-05-03T07:34:15;103005.84;;;10.44;57.93
71666;BME280;59503;53.486;10.196;2023-05-03T07:36:41;102993.72;;;10.28;59.49
71666;BME280;59503;53.486;10.196;2023-05-03T07:39:06;103001.69;;;10.47;56.86
71666;BME280;59503;53.486;10.196;2023-05-03T07:41:31;103008.09;;;10.15;58.91
71666;BME280;59503;53.486;10.196;2023-05-03T07:43:57;102999.16;;;10.28;58.14
71666;BME280;59503;53.486;10.196;2023-05-03T07:46:22;102997.72;;;10.31;57.69
71666;BME280;59503;53.486;10.196;2023-05-03T07:48:48;102990.69;;;10.30;56.40
71666;BME280;59503;53.486;10.196;2023-05-03T07:51:13;102984.13;;;10.31;56.76
71666;BME280;59503;53.486;10.196;2023-05-03T07:53:38;102983.41;;;10.39;57.97
71666;BME280;59503;53.486;10.196;2023-05-03T07:56:05;102993.38;;;10.65;56.53
71666;BME280;59503;53.486;10.196;2023-05-03T07:58:31;102991.25;;;10.76;55.65
71666;BME280;59503;53.486;10.196;2023-05-03T08:00:56;103003.78;;;10.85;55.49
71666;BME280;59503;53.486;10.196;2023-05-03T08:03:21;102996.19;;;10.96;54.17
71666;BME280;59503;53.486;10.196;2023-05-03T08:05:47;102991.56;;;11.18;54.01
71666;BME280;59503;53.486;10.196;2023-05-03T08:08:13;102986.66;;;11.29;53.98
71666;BME280;59503;53.486;10.196;2023-05-03T08:10:39;103005.22;;;11.58;54.13
71666;BME280;59503;53.486;10.196;2023-05-03T08:13:04;102990.63;;;11.76;51.24
71666;BME280;59503;53.486;10.196;2023-05-03T08:15:30;102996.66;;;11.64;51.85
71666;BME280;59503;53.486;10.196;2023-05-03T08:17:56;102988.06;;;11.79;52.93
71666;BME280;59503;53.486;10.196;2023-05-03T08:20:21;103003.63;;;11.57;52.32
71666;BME280;59503;53.486;10.196;2023-05-03T08:22:47;103004.19;;;11.14;52.47
71666;BME280;59503;53.486;10.196;2023-05-03T08:25:12;103007.06;;;11.40;53.27
71666;BME280;59503;53.486;10.196;2023-05-03T08:27:38;103010.16;;;11.69;52.36
71666;BME280;59503;53.486;10.196;2023-05-03T08:30:05;103004.09;;;11.81;51.29
71666;BME280;59503;53.486;10.196;2023-05-03T08:32:30;102999.59;;;11.54;51.55
71666;BME280;59503;53.486;10.196;2023-05-03T08:34:56;102999.91;;;11.53;52.69
71666;BME280;59503;53.486;10.196;2023-05-03T08:37:22;103009.25;;;11.60;52.04
71666;BME280;59503;53.486;10.196;2023-05-03T08:39:47;103007.03;;;11.62;51.77
71666;BME280;59503;53.486;10.196;2023-05-03T08:42:12;103002.25;;;11.68;51.44
71666;BME280;59503;53.486;10.196;2023-05-03T08:44:46;103017.50;;;11.69;51.31
71666;BME280;59503;53.486;10.196;2023-05-03T08:47:13;103002.81;;;11.87;51.18
71666;BME280;59503;53.486;10.196;2023-05-03T08:49:40;103001.84;;;11.74;50.76
71666;BME280;59503;53.486;10.196;2023-05-03T08:52:08;103006.59;;;11.69;50.39
71666;BME280;59503;53.486;10.196;2023-05-03T08:54:34;103019.63;;;11.80;51.28
71666;BME280;59503;53.486;10.196;2023-05-03T08:56:59;103022.03;;;11.82;51.15
71666;BME280;59503;53.486;10.196;2023-05-03T08:59:25;103025.00;;;12.02;52.20
71666;BME280;59503;53.486;10.196;2023-05-03T09:01:52;103021.81;;;12.09;51.58
71666;BME280;59503;53.486;10.196;2023-05-03T09:04:17;103025.03;;;12.11;50.89
71666;BME280;59503;53.486;10.196;2023-05-03T09:06:43;103026.28;;;12.05;51.65
71666;BME280;59503;53.486;10.196;2023-05-03T09:09:08;103022.16;;;12.07;50.74
71666;BME280;59503;53.486;10.196;2023-05-03T09:11:36;103027.25;;;12.00;51.38
71666;BME280;59503;53.486;10.196;2023-05-03T09:14:10;103030.84;;;12.18;49.70
71666;BME280;59503;53.486;10.196;2023-05-03T09:16:36;103025.69;;;12.08;50.26
71666;BME280;59503;53.486;10.196;2023-05-03T09:19:03;103025.69;;;12.08;50.24
71666;BME280;59503;53.486;10.196;2023-05-03T09:21:30;103027.97;;;12.23;50.66
71666;BME280;59503;53.486;10.196;2023-05-03T09:23:56;103035.72;;;12.38;49.34
71666;BME280;59503;53.486;10.196;2023-05-03T09:26:29;103037.16;;;12.52;48.72
71666;BME280;59503;53.486;10.196;2023-05-03T09:28:57;103041.81;;;12.52;47.48
71666;BME280;59503;53.486;10.196;2023-05-03T09:31:22;103031.25;;;12.68;47.11
71666;BME280;59503;53.486;10.196;2023-05-03T09:33:47;103024.84;;;13.23;47.95
71666;BME280;59503;53.486;10.196;2023-05-03T09:36:13;103029.06;;;13.67;45.67
71666;BME280;59503;53.486;10.196;2023-05-03T09:38:39;103037.91;;;13.64;46.02
71666;BME280;59503;53.486;10.196;2023-05-03T09:41:04;103029.78;;;12.79;47.25
71666;BME280;59503;53.486;10.196;2023-05-03T09:43:30;103034.81;;;12.85;48.20
71666;BME280;59503;53.486;10.196;2023-05-03T09:46:08;103027.69;;;12.67;47.02
71666;BME280;59503;53.486;10.196;2023-05-03T09:48:35;103018.88;;;12.96;48.18
71666;BME280;59503;53.486;10.196;2023-05-03T09:51:02;103024.53;;;13.16;48.47
71666;BME280;59503;53.486;10.196;2023-05-03T09:53:28;103021.34;;;13.69;46.06
71666;BME280;59503;53.486;10.196;2023-05-03T09:55:55;103017.66;;;13.56;46.17
71666;BME280;59503;53.486;10.196;2023-05-03T09:58:21;103024.84;;;13.69;45.68
71666;BME280;59503;53.486;10.196;2023-05-03T10:00:48;103010.47;;;14.19;44.34
71666;BME280;59503;53.486;10.196;2023-05-03T10:03:30;103008.41;;;14.16;45.44
71666;BME280;59503;53.486;10.196;2023-05-03T10:05:57;103013.78;;;15.15;42.48
71666;BME280;59503;53.486;10.196;2023-05-03T10:08:33;103013.81;;;15.27;41.11
71666;BME280;59503;53.486;10.196;2023-05-03T10:11:03;103010.28;;;15.71;41.81
71666;BME280;59503;53.486;10.196;2023-05-03T10:13:29;103008.69;;;15.94;41.25
71666;BME280;59503;53.486;10.196;2023-05-03T10:16:01;103005.72;;;15.75;40.95
71666;BME280;59503;53.486;10.196;2023-05-03T10:18:30;103012.22;;;15.83;40.17
71666;BME280;59503;53.486;10.196;2023-05-03T10:21:01;103006.75;;;15.95;39.65
71666;BME280;59503;53.486;10.196;2023-05-03T10:23:26;103002.72;;;16.41;38.50
71666;BME280;59503;53.486;10.196;2023-05-03T10:28:32;103001.66;;;16.57;38.21
71666;BME280;59503;53.486;10.196;2023-05-03T10:30:57;103001.22;;;16.55;37.70
71666;BME280;59503;53.486;10.196;2023-05-03T10:33:32;102998.19;;;15.72;38.16
71666;BME280;59503;53.486;10.196;2023-05-03T10:36:04;102997.72;;;15.94;38.32
71666;BME280;59503;53.486;10.196;2023-05-03T10:38:30;102992.69;;;16.08;38.20
71666;BME280;59503;53.486;10.196;2023-05-03T10:40:57;102989.88;;;16.57;39.36
71666;BME280;59503;53.486;10.196;2023-05-03T10:45:59;102979.75;;;17.44;36.69
71666;BME280;59503;53.486;10.196;2023-05-03T10:48:25;102987.47;;;17.85;36.92
71666;BME280;59503;53.486;10.196;2023-05-03T10:50:53;102982.50;;;17.59;36.75
71666;BME280;59503;53.486;10.196;2023-05-03T10:56:12;102987.88;;;16.97;37.26
71666;BME280;59503;53.486;10.196;2023-05-03T10:58:46;102977.69;;;17.25;36.55
71666;BME280;59503;53.486;10.196;2023-05-03T11:01:13;102968.22;;;17.38;37.43
71666;BME280;59503;53.486;10.196;2023-05-03T11:03:43;102972.41;;;17.48;36.24
71666;BME280;59503;53.486;10.196;2023-05-03T11:06:29;102971.34;;;17.68;35.93
71666;BME280;59503;53.486;10.196;2023-05-03T11:08:55;102981.28;;;17.72;36.71
71666;BME280;59503;53.486;10.196;2023-05-03T11:11:21;102974.03;;;17.21;36.38
71666;BME280;59503;53.486;10.196;2023-05-03T11:13:46;102970.94;;;17.22;36.35
71666;BME280;59503;53.486;10.196;2023-05-03T11:16:12;102969.09;;;16.99;36.68
71666;BME280;59503;53.486;10.196;2023-05-03T11:18:37;102970.34;;;17.91;36.96
71666;BME280;59503;53.486;10.196;2023-05-03T11:21:03;102974.31;;;18.09;35.23
71666;BME280;59503;53.486;10.196;2023-05-03T11:23:28;102971.50;;;17.75;35.63
71666;BME280;59503;53.486;10.196;2023-05-03T11:25:55;102981.06;;;17.34;36.61
71666;BME280;59503;53.486;10.196;2023-05-03T11:28:22;102966.53;;;17.96;35.63
71666;BME280;59503;53.486;10.196;2023-05-03T11:30:47;102959.69;;;17.43;37.51
71666;BME280;59503;53.486;10.196;2023-05-03T11:33:13;102971.88;;;17.58;35.03
71666;BME280;59503;53.486;10.196;2023-05-03T11:35:38;102967.91;;;17.55;35.91
71666;BME280;59503;53.486;10.196;2023-05-03T11:38:03;102960.84;;;18.04;36.34
71666;BME280;59503;53.486;10.196;2023-05-03T11:40:29;102964.28;;;18.01;34.69
71666;BME280;59503;53.486;10.196;2023-05-03T11:42:58;102966.00;;;18.60;34.92
71666;BME280;59503;53.486;10.196;2023-05-03T11:45:27;102961.66;;;19.19;32.91
71666;BME280;59503;53.486;10.196;2023-05-03T11:47:54;102967.28;;;19.94;31.59
71666;BME280;59503;53.486;10.196;2023-05-03T11:53:07;102957.13;;;19.08;32.81
71666;BME280;59503;53.486;10.196;2023-05-03T11:55:33;102965.78;;;18.87;33.64
71666;BME280;59503;53.486;10.196;2023-05-03T11:57:59;102961.75;;;19.04;31.85
71666;BME280;59503;53.486;10.196;2023-05-03T12:00:25;102953.81;;;19.40;32.03
71666;BME280;59503;53.486;10.196;2023-05-03T12:02:50;102955.81;;;19.43;34.06
71666;BME280;59503;53.486;10.196;2023-05-03T12:05:16;102957.22;;;19.83;34.65
71666;BME280;59503;53.486;10.196;2023-05-03T12:07:41;102951.19;;;20.55;32.76
71666;BME280;59503;53.486;10.196;2023-05-03T12:10:14;102950.84;;;20.60;31.55
71666;BME280;59503;53.486;10.196;2023-05-03T12:12:53;102948.56;;;20.66;31.15
71666;BME280;59503;53.486;10.196;2023-05-03T12:15:33;102954.72;;;19.48;31.95
71666;BME280;59503;53.486;10.196;2023-05-03T12:18:01;102948.38;;;19.96;31.99
71666;BME280;59503;53.486;10.196;2023-05-03T12:20:28;102952.84;;;20.30;32.13
71666;BME280;59503;53.486;10.196;2023-05-03T12:23:01;102945.19;;;20.50;31.68
71666;BME280;59503;53.486;10.196;2023-05-03T12:25:28;102947.94;;;20.79;30.85
71666;BME280;59503;53.486;10.196;2023-05-03T12:27:55;102938.75;;;21.09;30.08
71666;BME280;59503;53.486;10.196;2023-05-03T12:30:22;102935.34;;;21.22;29.95
71666;BME280;59503;53.486;10.196;2023-05-03T12:32:47;102933.34;;;21.19;29.86
71666;BME280;59503;53.486;10.196;2023-05-03T12:35:12;102925.50;;;20.88;30.39
71666;BME280;59503;53.486;10.196;2023-05-03T12:37:38;102927.44;;;20.84;31.14
71666;BME280;59503;53.486;10.196;2023-05-03T12:40:04;102931.59;;;21.01;29.72
71666;BME280;59503;53.486;10.196;2023-05-03T12:42:30;102925.28;;;21.04;30.28
71666;BME280;59503;53.486;10.196;2023-05-03T12:44:56;102925.81;;;20.79;31.60
71666;BME280;59503;53.486;10.196;2023-05-03T12:47:22;102920.59;;;21.08;29.39
71666;BME280;59503;53.486;10.196;2023-05-03T12:49:47;102919.38;;;21.02;29.67
71666;BME280;59503;53.486;10.196;2023-05-03T12:52:12;102910.88;;;21.24;31.06
71666;BME280;59503;53.486;10.196;2023-05-03T12:54:38;102922.66;;;21.18;28.90
71666;BME280;59503;53.486;10.196;2023-05-03T12:57:03;102917.31;;;21.39;28.36
71666;BME280;59503;53.486;10.196;2023-05-03T12:59:29;102908.94;;;20.55;29.52